Alston, Georgia
Current Conditions -  °F | °C
As of 12:35 PM on Monday 22 Dec 2014 (Local Time) from KVDI Reporting Station
Moderate Rain Moderate Rain  
Wind Chill:   Ceiling: 400
Heat Index:   Visibility: 10mi
Dew Point:   Wind: 6mph
Humidity: 100%   Direction: 80°E
Pressure: 29.98"   Gusts: NA
Location:  32.08°N, 82.48°W
Report Text: KVDI 221735Z AUTO 08005KT 10SM RA OVC004 09/09 A2998 RMK AO2 LTG DSNT W
Loading
Personal Weather Stations






























Interactive Weather Map New forecast layout! Learn more

10-Day Weather Forecast

Advertisements
Track Severe Weather on mobile